Terminal Aerodrome Forecast
Issued by NWS Grand Forks, ND

Home | Current Version | Previous Version | Graphics & Text | Print | Product List | Glossary On
Versions: 1 2 3 4 5 6 7 8 9 10 11 12 13 14 15 16 17
000
FTUS43 KFGF 162324
TAFFAR
TAF
KFAR 162324Z 1700/1724 19016G23KT P6SM BKN200
     FM170300 19012KT P6SM BKN130
     FM170900 23007KT P6SM BKN200
     FM171100 27007KT P6SM BKN200
     FM171400 30008KT P6SM BKN200
     FM171800 31013KT P6SM SCT200=

USA.gov is the U.S. government's official web portal to all federal, state and local government web resources and services.